Time,TemperatureF,DewpointF,PressureIn,WindDirection,WindDirectionDegrees,WindSpeedMPH,WindSpeedGustMPH,Humidity,HourlyPrecipIn,Conditions,Clouds,dailyrainin,SoftwareType,DateUTC
2013-02-26 00:01:00,34.0,34.0,30.23,SSW,210,3.0,-999.0,100,-99.99,,,-99.99,,2013-02-26 05:01:00,
2013-02-26 00:12:00,34.0,32.0,30.24,North,0,0.0,-999.0,93,-99.99,,,-99.99,,2013-02-26 05:12:00,
2013-02-26 00:22:00,34.0,30.0,30.24,SSW,210,3.0,-999.0,86,-99.99,,,-99.99,,2013-02-26 05:22:00,
2013-02-26 00:32:00,34.0,30.0,30.24,North,0,0.0,-999.0,86,-99.99,,,-99.99,,2013-02-26 05:32:00,
2013-02-26 00:43:00,34.0,30.0,30.24,North,0,0.0,-999.0,86,-99.99,,,-99.99,,2013-02-26 05:43:00,
2013-02-26 00:52:00,34.0,30.0,30.23,North,0,0.0,-999.0,86,-99.99,,,-99.99,,2013-02-26 05:52:00,
2013-02-26 01:02:00,34.0,30.0,30.23,North,0,0.0,-999.0,86,-99.99,,,-99.99,,2013-02-26 06:02:00,
2013-02-26 01:11:00,34.0,30.0,30.23,North,0,0.0,-999.0,86,-99.99,,,-99.99,,2013-02-26 06:11:00,
2013-02-26 01:21:00,34.0,30.0,30.23,North,0,0.0,-999.0,86,-99.99,,,-99.99,,2013-02-26 06:21:00,
2013-02-26 01:32:00,32.0,30.0,30.24,North,0,0.0,-999.0,92,-99.99,,,-99.99,,2013-02-26 06:32:00,
2013-02-26 01:42:00,32.0,30.0,30.24,North,0,0.0,-999.0,92,-99.99,,,-99.99,,2013-02-26 06:42:00,
2013-02-26 01:52:00,32.0,30.0,30.24,North,0,0.0,-999.0,92,-99.99,,,-99.99,,2013-02-26 06:52:00,
2013-02-26 02:01:00,32.0,30.0,30.24,North,0,0.0,-999.0,92,-99.99,,,-99.99,,2013-02-26 07:01:00,
2013-02-26 02:11:00,32.0,30.0,30.24,North,0,0.0,-999.0,92,-99.99,,,-99.99,,2013-02-26 07:11:00,
2013-02-26 02:22:00,32.0,30.0,30.25,SSW,210,3.0,-999.0,92,-99.99,,,-99.99,,2013-02-26 07:22:00,
2013-02-26 02:32:00,32.0,30.0,30.25,North,0,0.0,-999.0,92,-99.99,,,-99.99,,2013-02-26 07:32:00,
2013-02-26 02:42:00,32.0,30.0,30.26,SW,230,3.0,-999.0,92,-99.99,,,-99.99,,2013-02-26 07:42:00,
2013-02-26 02:51:00,32.0,30.0,30.26,WSW,240,3.0,-999.0,92,-99.99,,,-99.99,,2013-02-26 07:51:00,
2013-02-26 03:02:00,32.0,30.0,30.26,WSW,240,3.0,-999.0,92,-99.99,,,-99.99,,2013-02-26 08:02:00,
2013-02-26 03:11:00,32.0,30.0,30.26,North,0,0.0,-999.0,92,-99.99,,,-99.99,,2013-02-26 08:11:00,
2013-02-26 03:21:00,32.0,30.0,30.25,North,0,0.0,-999.0,92,-99.99,,,-99.99,,2013-02-26 08:21:00,
2013-02-26 03:31:00,32.0,30.0,30.25,North,0,0.0,-999.0,92,-99.99,,,-99.99,,2013-02-26 08:31:00,
2013-02-26 03:42:00,32.0,30.0,30.25,North,0,0.0,-999.0,92,-99.99,,,-99.99,,2013-02-26 08:42:00,
2013-02-26 03:52:00,32.0,30.0,30.25,North,0,0.0,-999.0,92,-99.99,,,-99.99,,2013-02-26 08:52:00,
2013-02-26 04:02:00,32.0,30.0,30.25,North,0,0.0,-999.0,92,-99.99,,,-99.99,,2013-02-26 09:02:00,
2013-02-26 04:11:00,30.0,28.0,30.26,North,0,0.0,-999.0,92,-99.99,,,-99.99,,2013-02-26 09:11:00,
2013-02-26 04:21:00,30.0,30.0,30.26,North,0,0.0,-999.0,100,-99.99,,,-99.99,,2013-02-26 09:21:00,
2013-02-26 04:32:00,30.0,30.0,30.26,North,0,0.0,-999.0,100,-99.99,,,-99.99,,2013-02-26 09:32:00,
2013-02-26 04:43:00,30.0,30.0,30.26,North,0,0.0,-999.0,100,-99.99,,,-99.99,,2013-02-26 09:43:00,
2013-02-26 04:51:00,30.0,30.0,30.26,North,0,0.0,-999.0,100,-99.99,,,-99.99,,2013-02-26 09:51:00,
2013-02-26 05:01:00,30.0,30.0,30.26,North,0,0.0,-999.0,100,-99.99,,,-99.99,,2013-02-26 10:01:00,
2013-02-26 05:11:00,28.0,28.0,30.26,North,0,0.0,-999.0,100,-99.99,,,-99.99,,2013-02-26 10:11:00,
2013-02-26 05:21:00,27.0,27.0,30.26,North,0,0.0,-999.0,100,-99.99,,,-99.99,,2013-02-26 10:21:00,
2013-02-26 05:32:00,28.0,28.0,30.27,North,0,0.0,-999.0,100,-99.99,,,-99.99,,2013-02-26 10:32:00,
2013-02-26 05:42:00,28.0,28.0,30.26,North,0,0.0,-999.0,100,-99.99,,,-99.99,,2013-02-26 10:42:00,
2013-02-26 05:52:00,28.0,28.0,30.27,North,0,0.0,-999.0,100,-99.99,,,-99.99,,2013-02-26 10:52:00,
2013-02-26 06:01:00,28.0,28.0,30.27,North,0,0.0,-999.0,100,-99.99,,,-99.99,,2013-02-26 11:01:00,
2013-02-26 06:12:00,27.0,27.0,30.27,North,0,0.0,-999.0,100,-99.99,,,-99.99,,2013-02-26 11:12:00,
2013-02-26 06:22:00,27.0,27.0,30.27,North,0,0.0,-999.0,100,-99.99,,,-99.99,,2013-02-26 11:22:00,
2013-02-26 06:32:00,27.0,27.0,30.27,North,0,0.0,-999.0,100,-99.99,,,-99.99,,2013-02-26 11:32:00,
2013-02-26 06:42:00,27.0,27.0,30.27,North,0,0.0,-999.0,100,-99.99,,,-99.99,,2013-02-26 11:42:00,
2013-02-26 06:52:00,27.0,27.0,30.27,North,0,0.0,-999.0,100,-99.99,,,-99.99,,2013-02-26 11:52:00,
2013-02-26 07:02:00,27.0,27.0,30.27,North,0,0.0,-999.0,100,-99.99,,,-99.99,,2013-02-26 12:02:00,
2013-02-26 07:11:00,27.0,27.0,30.27,West,260,3.0,-999.0,100,-99.99,,,-99.99,,2013-02-26 12:11:00,
2013-02-26 07:22:00,27.0,27.0,30.27,North,0,0.0,-999.0,100,-99.99,,,-99.99,,2013-02-26 12:22:00,
2013-02-26 07:32:00,27.0,27.0,30.28,ESE,110,3.0,-999.0,100,-99.99,,,-99.99,,2013-02-26 12:32:00,
2013-02-26 07:42:00,27.0,27.0,30.27,North,0,0.0,-999.0,100,-99.99,,,-99.99,,2013-02-26 12:42:00,
2013-02-26 07:52:00,27.0,27.0,30.28,North,0,0.0,-999.0,100,-99.99,,,-99.99,,2013-02-26 12:52:00,
2013-02-26 08:02:00,27.0,27.0,30.28,North,0,0.0,-999.0,100,-99.99,,,-99.99,,2013-02-26 13:02:00,
2013-02-26 08:11:00,28.0,28.0,30.27,North,0,0.0,-999.0,100,-99.99,,,-99.99,,2013-02-26 13:11:00,
2013-02-26 08:22:00,30.0,30.0,30.28,ESE,120,3.0,-999.0,100,-99.99,,,-99.99,,2013-02-26 13:22:00,
2013-02-26 08:32:00,30.0,30.0,30.28,North,0,0.0,-999.0,100,-99.99,,,-99.99,,2013-02-26 13:32:00,
2013-02-26 08:42:00,32.0,30.0,30.28,SSE,150,3.0,-999.0,92,-99.99,,,-99.99,,2013-02-26 13:42:00,
2013-02-26 08:51:00,34.0,30.0,30.28,North,0,0.0,-999.0,86,-99.99,,,-99.99,,2013-02-26 13:51:00,
2013-02-26 09:01:00,34.0,30.0,30.28,North,0,0.0,-999.0,86,-99.99,,,-99.99,,2013-02-26 14:01:00,
2013-02-26 09:11:00,36.0,30.0,30.28,North,0,0.0,-999.0,80,-99.99,,,-99.99,,2013-02-26 14:11:00,
2013-02-26 09:21:00,36.0,28.0,30.27,North,0,0.0,-999.0,74,-99.99,,,-99.99,,2013-02-26 14:21:00,
2013-02-26 09:32:00,36.0,28.0,30.27,North,0,0.0,-999.0,74,-99.99,,,-99.99,,2013-02-26 14:32:00,
2013-02-26 09:42:00,37.0,30.0,30.26,ESE,120,5.0,-999.0,74,-99.99,,,-99.99,,2013-02-26 14:42:00,
2013-02-26 09:52:00,37.0,28.0,30.26,East,80,5.0,-999.0,69,-99.99,,,-99.99,,2013-02-26 14:52:00,
2013-02-26 10:02:00,37.0,28.0,30.26,East,80,5.0,-999.0,69,-99.99,,,-99.99,,2013-02-26 15:02:00,
2013-02-26 10:11:00,37.0,28.0,30.26,East,80,3.0,-999.0,69,-99.99,,,-99.99,,2013-02-26 15:11:00,
2013-02-26 10:22:00,37.0,28.0,30.26,East,100,6.0,-999.0,69,-99.99,,,-99.99,,2013-02-26 15:22:00,
2013-02-26 10:32:00,37.0,28.0,30.26,ENE,60,6.0,-999.0,69,-99.99,,,-99.99,,2013-02-26 15:32:00,
2013-02-26 10:42:00,37.0,28.0,30.26,NE,50,5.0,-999.0,69,-99.99,,,-99.99,,2013-02-26 15:42:00,
2013-02-26 10:52:00,37.0,28.0,30.26,NE,50,6.0,-999.0,69,-99.99,,,-99.99,,2013-02-26 15:52:00,
2013-02-26 11:02:00,37.0,28.0,30.26,NE,50,6.0,-999.0,69,-99.99,,,-99.99,,2013-02-26 16:02:00,
2013-02-26 11:11:00,39.0,28.0,30.26,NE,50,5.0,-999.0,64,-99.99,,,-99.99,,2013-02-26 16:11:00,
2013-02-26 11:22:00,39.0,27.0,30.26,North,0,0.0,-999.0,60,-99.99,,,-99.99,,2013-02-26 16:22:00,
2013-02-26 11:32:00,39.0,28.0,30.26,East,90,6.0,-999.0,64,-99.99,,,-99.99,,2013-02-26 16:32:00,
2013-02-26 11:42:00,39.0,28.0,30.26,North,0,0.0,-999.0,64,-99.99,,,-99.99,,2013-02-26 16:42:00,
2013-02-26 11:52:00,41.0,27.0,30.26,North,0,0.0,-999.0,56,-99.99,,,-99.99,,2013-02-26 16:52:00,
2013-02-26 12:01:00,41.0,27.0,30.26,North,0,0.0,-999.0,56,-99.99,,,-99.99,,2013-02-26 17:01:00,
2013-02-26 12:11:00,39.0,27.0,30.25,North,0,0.0,-999.0,60,-99.99,,,-99.99,,2013-02-26 17:11:00,
2013-02-26 12:21:00,43.0,27.0,30.24,North,0,0.0,-999.0,52,-99.99,,,-99.99,,2013-02-26 17:21:00,
2013-02-26 12:32:00,43.0,27.0,30.23,WSW,240,5.0,-999.0,52,-99.99,,,-99.99,,2013-02-26 17:32:00,
2013-02-26 12:41:00,41.0,28.0,30.23,West,260,3.0,-999.0,60,-99.99,,,-99.99,,2013-02-26 17:41:00,
2013-02-26 12:52:00,41.0,28.0,30.22,North,0,0.0,-999.0,60,-99.99,,,-99.99,,2013-02-26 17:52:00,
2013-02-26 13:02:00,41.0,28.0,30.22,North,0,0.0,-999.0,60,-99.99,,,-99.99,,2013-02-26 18:02:00,
2013-02-26 13:12:00,43.0,27.0,30.22,ESE,120,3.0,-999.0,52,-99.99,,,-99.99,,2013-02-26 18:12:00,
2013-02-26 13:21:00,45.0,27.0,30.22,South,180,6.0,-999.0,48,-99.99,,,-99.99,,2013-02-26 18:21:00,
2013-02-26 13:32:00,45.0,27.0,30.22,SSE,160,7.0,-999.0,48,-99.99,,,-99.99,,2013-02-26 18:32:00,
2013-02-26 13:42:00,43.0,27.0,30.22,SSE,160,6.0,-999.0,52,-99.99,,,-99.99,,2013-02-26 18:42:00,
2013-02-26 13:52:00,45.0,27.0,30.21,ESE,110,6.0,-999.0,48,-99.99,,,-99.99,,2013-02-26 18:52:00,
2013-02-26 14:01:00,45.0,27.0,30.21,ESE,110,6.0,-999.0,48,-99.99,,,-99.99,,2013-02-26 19:01:00,
2013-02-26 14:11:00,45.0,27.0,30.20,ESE,110,5.0,-999.0,48,-99.99,,,-99.99,,2013-02-26 19:11:00,
2013-02-26 14:22:00,43.0,27.0,30.19,ESE,110,7.0,-999.0,52,-99.99,,,-99.99,,2013-02-26 19:22:00,
2013-02-26 14:32:00,43.0,27.0,30.18,ESE,110,7.0,-999.0,52,-99.99,,,-99.99,,2013-02-26 19:32:00,
2013-02-26 14:42:00,45.0,27.0,30.17,ESE,120,7.0,-999.0,48,-99.99,,,-99.99,,2013-02-26 19:42:00,
2013-02-26 14:52:00,45.0,25.0,30.16,East,100,7.0,-999.0,45,-99.99,,,-99.99,,2013-02-26 19:52:00,
2013-02-26 15:01:00,45.0,25.0,30.16,East,100,7.0,-999.0,45,-99.99,,,-99.99,,2013-02-26 20:01:00,
2013-02-26 15:11:00,43.0,28.0,30.15,East,80,10.0,-999.0,56,-99.99,,,-99.99,,2013-02-26 20:11:00,
2013-02-26 15:21:00,43.0,28.0,30.15,ENE,70,8.0,-999.0,56,-99.99,,,-99.99,,2013-02-26 20:21:00,
2013-02-26 15:32:00,43.0,30.0,30.15,ENE,70,9.0,-999.0,60,-99.99,,,-99.99,,2013-02-26 20:32:00,
2013-02-26 15:41:00,43.0,30.0,30.15,ENE,70,10.0,16.0,60,-99.99,,,-99.99,,2013-02-26 20:41:00,
2013-02-26 15:52:00,41.0,30.0,30.15,East,80,10.0,-999.0,65,-99.99,,,-99.99,,2013-02-26 20:52:00,
2013-02-26 16:01:00,41.0,30.0,30.15,East,80,10.0,-999.0,65,-99.99,,,-99.99,,2013-02-26 21:01:00,
2013-02-26 16:11:00,41.0,30.0,30.15,East,80,8.0,-999.0,65,-99.99,,,-99.99,,2013-02-26 21:11:00,
2013-02-26 16:21:00,41.0,30.0,30.14,ENE,70,8.0,-999.0,65,-99.99,,,-99.99,,2013-02-26 21:21:00,
2013-02-26 16:31:00,41.0,30.0,30.13,ENE,70,8.0,-999.0,65,-99.99,,,-99.99,,2013-02-26 21:31:00,
2013-02-26 16:41:00,41.0,30.0,30.13,ENE,70,8.0,-999.0,65,-99.99,,,-99.99,,2013-02-26 21:41:00,
2013-02-26 16:51:00,39.0,30.0,30.13,ENE,70,7.0,-999.0,69,-99.99,,,-99.99,,2013-02-26 21:51:00,
2013-02-26 17:01:00,39.0,30.0,30.13,ENE,70,7.0,-999.0,69,-99.99,,,-99.99,,2013-02-26 22:01:00,
2013-02-26 17:11:00,39.0,30.0,30.13,ENE,70,6.0,-999.0,69,-99.99,,,-99.99,,2013-02-26 22:11:00,
2013-02-26 17:21:00,39.0,30.0,30.13,ENE,70,6.0,-999.0,69,-99.99,,,-99.99,,2013-02-26 22:21:00,
2013-02-26 17:32:00,39.0,30.0,30.13,ENE,70,3.0,-999.0,69,-99.99,,,-99.99,,2013-02-26 22:32:00,
2013-02-26 17:41:00,39.0,30.0,30.13,North,0,0.0,-999.0,69,-99.99,,,-99.99,,2013-02-26 22:41:00,
2013-02-26 17:51:00,37.0,30.0,30.12,ENE,60,6.0,-999.0,74,-99.99,,,-99.99,,2013-02-26 22:51:00,
2013-02-26 18:01:00,37.0,30.0,30.12,ENE,60,6.0,-999.0,74,-99.99,,,-99.99,,2013-02-26 23:01:00,
2013-02-26 18:11:00,37.0,30.0,30.12,NE,50,7.0,-999.0,74,-99.99,,,-99.99,,2013-02-26 23:11:00,
2013-02-26 18:21:00,37.0,30.0,30.11,ENE,60,6.0,-999.0,74,-99.99,,,-99.99,,2013-02-26 23:21:00,
2013-02-26 18:32:00,37.0,30.0,30.11,ENE,60,7.0,-999.0,74,-99.99,,,-99.99,,2013-02-26 23:32:00,
2013-02-26 18:41:00,37.0,30.0,30.10,ENE,60,7.0,-999.0,74,-99.99,,,-99.99,,2013-02-26 23:41:00,
2013-02-26 18:52:00,36.0,30.0,30.11,ENE,60,8.0,-999.0,80,-99.99,,,-99.99,,2013-02-26 23:52:00,
2013-02-26 19:02:00,36.0,30.0,30.11,ENE,60,8.0,-999.0,80,-99.99,,,-99.99,,2013-02-27 00:02:00,
2013-02-26 19:11:00,36.0,30.0,30.11,ENE,70,5.0,-999.0,80,-99.99,,,-99.99,,2013-02-27 00:11:00,
2013-02-26 19:22:00,36.0,30.0,30.12,ENE,60,5.0,-999.0,80,-99.99,,,-99.99,,2013-02-27 00:22:00,
2013-02-26 19:32:00,36.0,30.0,30.13,ENE,60,6.0,-999.0,80,-99.99,,,-99.99,,2013-02-27 00:32:00,
2013-02-26 19:42:00,36.0,30.0,30.12,ENE,70,5.0,-999.0,80,-99.99,,,-99.99,,2013-02-27 00:42:00,
2013-02-26 19:51:00,36.0,30.0,30.13,ENE,70,6.0,-999.0,80,-99.99,,,-99.99,,2013-02-27 00:51:00,
2013-02-26 20:01:00,36.0,30.0,30.13,ENE,70,6.0,-999.0,80,-99.99,,,-99.99,,2013-02-27 01:01:00,
2013-02-26 20:11:00,36.0,30.0,30.13,ENE,70,5.0,-999.0,80,-99.99,,,-99.99,,2013-02-27 01:11:00,
2013-02-26 20:22:00,36.0,30.0,30.13,East,80,3.0,-999.0,80,-99.99,,,-99.99,,2013-02-27 01:22:00,
2013-02-26 20:32:00,36.0,30.0,30.11,ENE,70,7.0,-999.0,80,-99.99,,,-99.99,,2013-02-27 01:32:00,
2013-02-26 20:42:00,36.0,30.0,30.11,East,80,6.0,-999.0,80,-99.99,,,-99.99,,2013-02-27 01:42:00,
2013-02-26 20:51:00,36.0,30.0,30.10,ENE,70,6.0,-999.0,80,-99.99,,,-99.99,,2013-02-27 01:51:00,
2013-02-26 21:01:00,36.0,30.0,30.10,ENE,70,6.0,-999.0,80,-99.99,,,-99.99,,2013-02-27 02:01:00,
2013-02-26 21:15:00,36.0,30.0,30.10,East,80,5.0,-999.0,80,-99.99,,,-99.99,,2013-02-27 02:15:00,
2013-02-26 21:23:00,34.0,30.0,30.10,East,90,3.0,-999.0,86,-99.99,,,-99.99,,2013-02-27 02:23:00,
2013-02-26 21:32:00,34.0,30.0,30.09,East,80,3.0,-999.0,86,-99.99,,,-99.99,,2013-02-27 02:32:00,
2013-02-26 21:42:00,34.0,30.0,30.09,East,80,3.0,-999.0,86,-99.99,,,-99.99,,2013-02-27 02:42:00,
2013-02-26 21:52:00,34.0,30.0,30.09,East,80,3.0,-999.0,86,-99.99,,,-99.99,,2013-02-27 02:52:00,
2013-02-26 22:02:00,34.0,30.0,30.09,East,80,3.0,-999.0,86,-99.99,,,-99.99,,2013-02-27 03:02:00,
2013-02-26 22:11:00,34.0,30.0,30.07,ENE,70,6.0,-999.0,86,-99.99,,,-99.99,,2013-02-27 03:11:00,
2013-02-26 22:22:00,34.0,30.0,30.06,East,80,7.0,-999.0,86,-99.99,,,-99.99,,2013-02-27 03:22:00,
2013-02-26 22:32:00,34.0,30.0,30.05,East,80,5.0,-999.0,86,-99.99,,,-99.99,,2013-02-27 03:32:00,
2013-02-26 22:42:00,34.0,30.0,30.05,East,80,6.0,-999.0,86,-99.99,,,-99.99,,2013-02-27 03:42:00,
2013-02-26 22:52:00,34.0,30.0,30.03,East,80,6.0,-999.0,86,-99.99,,,-99.99,,2013-02-27 03:52:00,
2013-02-26 23:01:00,34.0,30.0,30.03,East,80,6.0,-999.0,86,-99.99,,,-99.99,,2013-02-27 04:01:00,
2013-02-26 23:11:00,34.0,30.0,30.02,East,80,6.0,-999.0,86,-99.99,,,-99.99,,2013-02-27 04:11:00,
2013-02-26 23:22:00,34.0,30.0,30.01,ENE,70,7.0,-999.0,86,-99.99,,,-99.99,,2013-02-27 04:22:00,
2013-02-26 23:32:00,34.0,30.0,30.01,East,80,6.0,-999.0,86,-99.99,,,-99.99,,2013-02-27 04:32:00,
2013-02-26 23:42:00,34.0,30.0,30.01,East,90,3.0,-999.0,86,-99.99,,,-99.99,,2013-02-27 04:42:00,
2013-02-26 23:52:00,34.0,30.0,30.01,East,80,3.0,-999.0,86,-99.99,,,-99.99,,2013-02-27 04:52:00,